Arthur Brusco — WDC3449 — position and weather

sailwx.info

Track history (hours):
 
Tides and Currents Weather Stations Pressure Air Temp Water Temp Dewpoint Dewpoint Depression Visibility Wind Speed Wind Dir Waves Ship Positions

Arthur Brusco

Owner: Brusco Tug & Barge, Inc, Longview, WA. More information available from US FCC via Universal Licensing System and Coast Guard Vessel Documentation Center.

Last reported at 2016-May-04 01:33 UTC. Time now 2016-May-04 01:57 UTC.
Position N 37°46' W 122°14'.

Length 35 m; draft 3.2 m.

Type: Other ship. MMSI: 271040404.

Date/timePositionNaut miles runAvg speedWind from/ knotsBaromVisibWave heightAir tempDewpointWater temp
2016-May-04 01:33N 37°46' W 122°14'0 0.0
2016-May-04 00:33N 37°46' W 122°14'0 0.0
2016-May-03 23:33N 37°46' W 122°14'0 0.0
2016-May-03 22:31N 37°46' W 122°14'0 0.0
2016-May-03 21:26N 37°46' W 122°14'0 0.0
2016-May-03 20:32N 37°46' W 122°14'0 0.0
2016-May-03 19:33N 37°46' W 122°14'0 0.0
2016-May-03 18:33N 37°46' W 122°14'0 0.0
2016-May-03 17:33N 37°46' W 122°14'0 0.0
2016-May-03 16:33N 37°46' W 122°14'0 0.0
2016-May-03 15:33N 37°46' W 122°14'0 0.0
2016-May-03 14:32N 37°46' W 122°14'0 0.0
2016-May-03 13:32N 37°46' W 122°14'0 0.0
2016-May-03 12:33N 37°46' W 122°14'0 0.0
2016-May-03 11:33N 37°46' W 122°15'5 5.0
2016-May-03 10:33N 37°48' W 122°21'1 1.4
2016-May-03 09:33N 37°47' W 122°22'5 5.0
2016-May-03 08:33N 37°49' W 122°28'5 4.7
2016-May-03 07:33N 37°47' W 122°34'7 6.8
2016-May-03 06:30N 37°43' W 122°41'8 8.0
2016-May-03 05:28N 37°39' W 122°50'9 9.3
2016-May-03 04:31N 37°34' W 122°60'9 8.7
2016-May-03 03:30N 37°34' W 123°11'13 6.4
2016-May-03 01:30N 37°39' W 123°26'15 7.9
2016-May-02 23:33N 37°37' W 123°06'8 7.9
2016-May-02 22:31N 37°38' W 122°56'15 7.7
2016-May-02 20:33N 37°46' W 122°40'9 9.4
2016-May-02 19:33N 37°49' W 122°29'8 7.5
2016-May-02 18:33N 37°48' W 122°19'2 1.6
2016-May-02 17:33N 37°49' W 122°19'0 0.0
2016-May-02 16:33N 37°49' W 122°19'0 0.0
2016-May-02 15:33N 37°49' W 122°19'0 0.0
2016-May-02 14:33N 37°49' W 122°19'0 0.0
2016-May-02 13:31N 37°49' W 122°19'0 0.0
2016-May-02 12:33N 37°49' W 122°19'0 0.0
2016-May-02 11:33N 37°49' W 122°19'0 0.0
2016-May-02 10:33N 37°49' W 122°19'0 0.0
2016-May-02 09:33N 37°49' W 122°19'0 0.0
2016-May-02 08:33N 37°49' W 122°19'0 0.0
2016-May-02 07:33N 37°49' W 122°19'2 1.6
2016-May-02 06:33N 37°48' W 122°18'5 5.4
2016-May-02 05:33N 37°49' W 122°25'7 7.1
2016-May-02 04:33N 37°47' W 122°34'17 8.6
2016-May-02 02:33N 37°38' W 122°52'9 9.3
2016-May-02 01:33N 37°33' W 123°02'9 8.7
2016-May-02 00:30N 37°35' W 123°14'9 9.1
2016-May-01 23:33N 37°37' W 123°24'2 1.5
2016-May-01 22:33N 37°39' W 123°25'7 6.8
2016-May-01 21:33N 37°38' W 123°17'6 6.4
2016-May-01 20:33N 37°37' W 123°09'7 6.8
2016-May-01 19:33N 37°37' W 123°00'7 7.0
2016-May-01 18:33N 37°40' W 122°52'7 7.2
2016-May-01 17:33N 37°43' W 122°44'8 6.8
2016-May-01 16:18N 37°47' W 122°35'6 7.6
2016-May-01 15:33N 37°49' W 122°28'6 5.7
2016-May-01 14:33N 37°48' W 122°21'2 2.4
2016-May-01 13:33N 37°49' W 122°19'0 0.0
2016-May-01 12:33N 37°49' W 122°19'0 0.0
2016-May-01 11:33N 37°49' W 122°19'0 0.0
2016-May-01 10:33N 37°49' W 122°19'0 0.0
2016-May-01 09:32N 37°49' W 122°19'0 0.0
2016-May-01 08:33N 37°49' W 122°19'0 0.0
2016-May-01 07:32N 37°49' W 122°19'0 0.0
2016-May-01 06:33N 37°49' W 122°19'0 0.0
2016-May-01 05:33N 37°49' W 122°19'0 0.0
2016-May-01 04:33N 37°49' W 122°19'0 0.0
2016-May-01 03:33N 37°49' W 122°19'0 0.0
2016-May-01 02:33N 37°49' W 122°19'0 0.0
2016-May-01 01:33N 37°49' W 122°19'0 0.0
2016-May-01 00:32N 37°49' W 122°19'0 0.1
2016-Apr-30 23:33N 37°49' W 122°18'0 0.0
2016-Apr-30 22:33N 37°49' W 122°18'0 0.0
2016-Apr-30 21:33N 37°49' W 122°18'0 0.0
2016-Apr-30 20:33N 37°49' W 122°18'0 0.0
2016-Apr-30 19:33N 37°49' W 122°18'0 0.0
2016-Apr-30 18:33N 37°49' W 122°18'0 0.1
2016-Apr-30 17:33N 37°49' W 122°19'0 0.0
2016-Apr-30 16:31N 37°49' W 122°19'0 0.0
2016-Apr-30 15:33N 37°49' W 122°19'0 0.0
2016-Apr-30 14:33N 37°49' W 122°19'0 0.0
2016-Apr-30 13:33N 37°49' W 122°19'0 0.0
2016-Apr-30 12:32N 37°49' W 122°19'0 0.0
2016-Apr-30 11:33N 37°49' W 122°19'0 0.0
2016-Apr-30 10:33N 37°49' W 122°19'0 0.0
2016-Apr-30 09:33N 37°49' W 122°19'0 0.0
2016-Apr-30 08:33N 37°49' W 122°19'0 0.0
2016-Apr-30 07:33N 37°49' W 122°19'0 0.0
2016-Apr-30 06:33N 37°49' W 122°19'0 0.0
2016-Apr-30 05:33N 37°49' W 122°19'0 0.0
2016-Apr-30 04:33N 37°49' W 122°19'0 0.0
2016-Apr-30 03:33N 37°49' W 122°19'0 0.0
2016-Apr-30 02:33N 37°49' W 122°19'0 0.0
2016-Apr-30 01:31N 37°49' W 122°19'0 0.0
2016-Apr-30 00:33N 37°49' W 122°19'0 0.0
2016-Apr-29 23:33N 37°49' W 122°19'0 0.0
2016-Apr-29 22:33N 37°49' W 122°19'0 0.0
2016-Apr-29 21:33N 37°49' W 122°19'0 0.0
2016-Apr-29 20:33N 37°49' W 122°19'0 0.0
2016-Apr-29 19:33N 37°49' W 122°19'0 0.0
2016-Apr-29 18:31N 37°49' W 122°19'0 0.0
2016-Apr-29 17:32N 37°49' W 122°19'0 0.0
2016-Apr-29 16:33N 37°49' W 122°19'0 0.0
2016-Apr-29 12:33N 37°49' W 122°19'0 0.0
2016-Apr-29 11:33N 37°49' W 122°19'0 0.0
2016-Apr-29 10:33N 37°49' W 122°19'0 0.0
2016-Apr-29 09:33N 37°49' W 122°19'0 0.0
2016-Apr-29 08:33N 37°49' W 122°19'0 0.0
2016-Apr-29 07:33N 37°49' W 122°19'0 0.0
2016-Apr-29 06:33N 37°49' W 122°19'0 0.0
2016-Apr-29 05:33N 37°49' W 122°19'0 0.0
2016-Apr-29 04:33N 37°49' W 122°19'0 0.0
2016-Apr-29 03:33N 37°49' W 122°19'0 0.0
2016-Apr-29 02:33N 37°49' W 122°19'0 0.0
2016-Apr-29 01:33N 37°49' W 122°19'4 4.3
2016-Apr-29 00:33N 37°46' W 122°14'0 0.0
2016-Apr-28 23:33N 37°46' W 122°14'0 0.0
2016-Apr-28 22:33N 37°46' W 122°14'0 0.0
2016-Apr-28 21:33N 37°46' W 122°14'0 0.0
2016-Apr-28 20:33N 37°46' W 122°14'4 4.3
2016-Apr-28 19:33N 37°49' W 122°19'2 1.7
2016-Apr-28 18:33N 37°48' W 122°18'1 1.1
2016-Apr-28 17:33N 37°48' W 122°20'2 2.4
2016-Apr-28 16:33N 37°50' W 122°21'0 0.0
2016-Apr-28 15:33N 37°50' W 122°21'1 1.5
2016-Apr-28 14:33N 37°48' W 122°21'2 1.5
2016-Apr-28 13:33N 37°50' W 122°21'3 3.5
2016-Apr-28 12:33N 37°48' W 122°18'3 3.3
2016-Apr-28 11:34N 37°50' W 122°21'0 0.0
2016-Apr-28 10:33N 37°50' W 122°21'0 0.0
2016-Apr-28 09:33N 37°50' W 122°21'0 0.0
2016-Apr-28 08:33N 37°50' W 122°21'0 0.0
2016-Apr-28 07:33N 37°50' W 122°21'0 0.0
2016-Apr-28 06:33N 37°50' W 122°21'0 0.0
2016-Apr-28 05:33N 37°50' W 122°21'0 0.0
2016-Apr-28 04:33N 37°50' W 122°21'0 0.1
2016-Apr-28 03:33N 37°50' W 122°21'0 0.0
2016-Apr-28 02:33N 37°50' W 122°21'0 0.1
2016-Apr-28 01:33N 37°50' W 122°21'0 0.0
2016-Apr-28 00:33N 37°50' W 122°21'0 0.0
2016-Apr-27 23:33N 37°50' W 122°21'0 0.0
2016-Apr-27 22:33N 37°50' W 122°21'0 0.0
2016-Apr-27 21:33N 37°50' W 122°21'0 0.0
2016-Apr-27 20:33N 37°50' W 122°21'0 0.0
2016-Apr-27 19:33N 37°50' W 122°21'3 3.4
2016-Apr-27 18:33N 37°49' W 122°26'7 6.6
2016-Apr-27 17:33N 37°47' W 122°34'28 3.4
2016-Apr-27 09:21N 37°37' W 123°06'20 6.1
2016-Apr-27 06:06N 37°44' W 122°42'9 5.7
2016-Apr-27 04:33N 37°48' W 122°32'7 6.9
2016-Apr-27 03:33N 37°49' W 122°24'5 5.0
2016-Apr-27 02:33N 37°47' W 122°18'1 1.4
2016-Apr-27 01:33N 37°47' W 122°16'2 1.8
2016-Apr-27 00:33N 37°46' W 122°14'0 0.0
2016-Apr-26 23:33N 37°46' W 122°14'0 0.0
2016-Apr-26 22:33N 37°46' W 122°14'0 0.0
2016-Apr-26 21:33N 37°46' W 122°14'0 0.0
2016-Apr-26 20:33N 37°46' W 122°14'0 0.0
2016-Apr-26 19:33N 37°46' W 122°14'0 0.0
2016-Apr-26 18:33N 37°46' W 122°14'0 0.0
2016-Apr-26 17:33N 37°46' W 122°14'0 0.0
2016-Apr-26 16:33N 37°46' W 122°14'3 3.0
2016-Apr-26 15:33N 37°48' W 122°18'2 2.3
2016-Apr-26 14:33N 37°48' W 122°21'2 1.5
2016-Apr-26 13:33N 37°49' W 122°21'2 2.4
2016-Apr-26 12:33N 37°49' W 122°18'0 0.0
2016-Apr-26 11:33N 37°49' W 122°18'0 0.0
2016-Apr-26 10:33N 37°49' W 122°18'0 0.0
2016-Apr-26 09:33N 37°49' W 122°18'0 0.1
2016-Apr-26 08:33N 37°49' W 122°19'0 0.0
2016-Apr-26 07:33N 37°49' W 122°19'1 0.9
2016-Apr-26 06:33N 37°49' W 122°20'9 9.2
2016-Apr-26 05:33N 37°56' W 122°27'5 0.5
2016-Apr-25 20:22N 38°01' W 122°24'7 9.0
2016-Apr-25 19:33N 37°53' W 122°25'5 4.7
2016-Apr-25 18:33N 37°50' W 122°21'9 8.6
2016-Apr-25 17:32N 37°57' W 122°27'6 0.6
2016-Apr-25 08:33N 37°52' W 122°24'5 4.5
2016-Apr-25 07:33N 37°48' W 122°21'1 1.1
2016-Apr-25 06:33N 37°48' W 122°19'1 1.5
2016-Apr-25 05:33N 37°49' W 122°19'0 0.1
2016-Apr-25 04:33N 37°49' W 122°19'0 0.0
2016-Apr-25 03:33N 37°49' W 122°19'0 0.0
2016-Apr-25 02:33N 37°49' W 122°19'0 0.0
2016-Apr-25 01:33N 37°49' W 122°19'0 0.0
2016-Apr-25 00:33N 37°49' W 122°19'2 2.1
2016-Apr-24 23:33N 37°50' W 122°21'0 0.0
2016-Apr-24 22:33N 37°50' W 122°21'0 0.0
2016-Apr-24 21:33N 37°50' W 122°21'0 0.0
2016-Apr-24 20:33N 37°50' W 122°21'3 3.3
2016-Apr-24 19:33N 37°47' W 122°20'3 3.4
2016-Apr-24 18:33N 37°50' W 122°21'0 0.1
2016-Apr-24 17:33N 37°50' W 122°21'0 0.0
2016-Apr-24 16:32N 37°50' W 122°21'0 0.0
2016-Apr-24 15:33N 37°50' W 122°21'0 0.1
2016-Apr-24 14:33N 37°50' W 122°21'4 4.0
2016-Apr-24 13:33N 37°53' W 122°25'1110.7
2016-Apr-24 12:32N 38°03' W 122°20'5 0.8
2016-Apr-24 06:17N 38°04' W 122°13'7 8.3
2016-Apr-24 05:26N 38°02' W 122°22'8 8.8
2016-Apr-24 04:33N 37°55' W 122°27'8 8.2
2016-Apr-24 03:33N 37°48' W 122°21'2 1.7
2016-Apr-24 02:33N 37°48' W 122°19'10 9.9
2016-Apr-24 01:33N 37°55' W 122°27'  
Track history (hours):
 
Tides and Currents Weather Stations Pressure Air Temp Water Temp Dewpoint Dewpoint Depression Visibility Wind Speed Wind Dir Waves Ship Positions

Arthur Brusco

Owner: Brusco Tug & Barge, Inc, Longview, WA. More information available from US FCC via Universal Licensing System and Coast Guard Vessel Documentation Center.

Last reported at 2016-May-04 01:33 UTC. Time now 2016-May-04 01:57 UTC.
Position N 37°46' W 122°14'.

Length 35 m; draft 3.2 m.

Type: Other ship. MMSI: 271040404.

Date/timePositionNaut miles runAvg speedWind from/ knotsBaromVisibWave heightAir tempDewpointWater temp
2016-May-04 01:33N 37°46' W 122°14'0 0.0
2016-May-04 00:33N 37°46' W 122°14'0 0.0
2016-May-03 23:33N 37°46' W 122°14'0 0.0
2016-May-03 22:31N 37°46' W 122°14'0 0.0
2016-May-03 21:26N 37°46' W 122°14'0 0.0
2016-May-03 20:32N 37°46' W 122°14'0 0.0
2016-May-03 19:33N 37°46' W 122°14'0 0.0
2016-May-03 18:33N 37°46' W 122°14'0 0.0
2016-May-03 17:33N 37°46' W 122°14'0 0.0
2016-May-03 16:33N 37°46' W 122°14'0 0.0
2016-May-03 15:33N 37°46' W 122°14'0 0.0
2016-May-03 14:32N 37°46' W 122°14'0 0.0
2016-May-03 13:32N 37°46' W 122°14'0 0.0
2016-May-03 12:33N 37°46' W 122°14'0 0.0
2016-May-03 11:33N 37°46' W 122°15'5 5.0
2016-May-03 10:33N 37°48' W 122°21'1 1.4
2016-May-03 09:33N 37°47' W 122°22'5 5.0
2016-May-03 08:33N 37°49' W 122°28'5 4.7
2016-May-03 07:33N 37°47' W 122°34'7 6.8
2016-May-03 06:30N 37°43' W 122°41'8 8.0
2016-May-03 05:28N 37°39' W 122°50'9 9.3
2016-May-03 04:31N 37°34' W 122°60'9 8.7
2016-May-03 03:30N 37°34' W 123°11'13 6.4
2016-May-03 01:30N 37°39' W 123°26'15 7.9
2016-May-02 23:33N 37°37' W 123°06'8 7.9
2016-May-02 22:31N 37°38' W 122°56'15 7.7
2016-May-02 20:33N 37°46' W 122°40'9 9.4
2016-May-02 19:33N 37°49' W 122°29'8 7.5
2016-May-02 18:33N 37°48' W 122°19'2 1.6
2016-May-02 17:33N 37°49' W 122°19'0 0.0
2016-May-02 16:33N 37°49' W 122°19'0 0.0
2016-May-02 15:33N 37°49' W 122°19'0 0.0
2016-May-02 14:33N 37°49' W 122°19'0 0.0
2016-May-02 13:31N 37°49' W 122°19'0 0.0
2016-May-02 12:33N 37°49' W 122°19'0 0.0
2016-May-02 11:33N 37°49' W 122°19'0 0.0
2016-May-02 10:33N 37°49' W 122°19'0 0.0
2016-May-02 09:33N 37°49' W 122°19'0 0.0
2016-May-02 08:33N 37°49' W 122°19'0 0.0
2016-May-02 07:33N 37°49' W 122°19'2 1.6
2016-May-02 06:33N 37°48' W 122°18'5 5.4
2016-May-02 05:33N 37°49' W 122°25'7 7.1
2016-May-02 04:33N 37°47' W 122°34'17 8.6
2016-May-02 02:33N 37°38' W 122°52'9 9.3
2016-May-02 01:33N 37°33' W 123°02'9 8.7
2016-May-02 00:30N 37°35' W 123°14'9 9.1
2016-May-01 23:33N 37°37' W 123°24'2 1.5
2016-May-01 22:33N 37°39' W 123°25'7 6.8
2016-May-01 21:33N 37°38' W 123°17'6 6.4
2016-May-01 20:33N 37°37' W 123°09'7 6.8
2016-May-01 19:33N 37°37' W 123°00'7 7.0
2016-May-01 18:33N 37°40' W 122°52'7 7.2
2016-May-01 17:33N 37°43' W 122°44'8 6.8
2016-May-01 16:18N 37°47' W 122°35'6 7.6
2016-May-01 15:33N 37°49' W 122°28'6 5.7
2016-May-01 14:33N 37°48' W 122°21'2 2.4
2016-May-01 13:33N 37°49' W 122°19'0 0.0
2016-May-01 12:33N 37°49' W 122°19'0 0.0
2016-May-01 11:33N 37°49' W 122°19'0 0.0
2016-May-01 10:33N 37°49' W 122°19'0 0.0
2016-May-01 09:32N 37°49' W 122°19'0 0.0
2016-May-01 08:33N 37°49' W 122°19'0 0.0
2016-May-01 07:32N 37°49' W 122°19'0 0.0
2016-May-01 06:33N 37°49' W 122°19'0 0.0
2016-May-01 05:33N 37°49' W 122°19'0 0.0
2016-May-01 04:33N 37°49' W 122°19'0 0.0
2016-May-01 03:33N 37°49' W 122°19'0 0.0
2016-May-01 02:33N 37°49' W 122°19'0 0.0
2016-May-01 01:33N 37°49' W 122°19'0 0.0
2016-May-01 00:32N 37°49' W 122°19'0 0.1
2016-Apr-30 23:33N 37°49' W 122°18'0 0.0
2016-Apr-30 22:33N 37°49' W 122°18'0 0.0
2016-Apr-30 21:33N 37°49' W 122°18'0 0.0
2016-Apr-30 20:33N 37°49' W 122°18'0 0.0
2016-Apr-30 19:33N 37°49' W 122°18'0 0.0
2016-Apr-30 18:33N 37°49' W 122°18'0 0.1
2016-Apr-30 17:33N 37°49' W 122°19'0 0.0
2016-Apr-30 16:31N 37°49' W 122°19'0 0.0
2016-Apr-30 15:33N 37°49' W 122°19'0 0.0
2016-Apr-30 14:33N 37°49' W 122°19'0 0.0
2016-Apr-30 13:33N 37°49' W 122°19'0 0.0
2016-Apr-30 12:32N 37°49' W 122°19'0 0.0
2016-Apr-30 11:33N 37°49' W 122°19'0 0.0
2016-Apr-30 10:33N 37°49' W 122°19'0 0.0
2016-Apr-30 09:33N 37°49' W 122°19'0 0.0
2016-Apr-30 08:33N 37°49' W 122°19'0 0.0
2016-Apr-30 07:33N 37°49' W 122°19'0 0.0
2016-Apr-30 06:33N 37°49' W 122°19'0 0.0
2016-Apr-30 05:33N 37°49' W 122°19'0 0.0
2016-Apr-30 04:33N 37°49' W 122°19'0 0.0
2016-Apr-30 03:33N 37°49' W 122°19'0 0.0
2016-Apr-30 02:33N 37°49' W 122°19'0 0.0
2016-Apr-30 01:31N 37°49' W 122°19'0 0.0
2016-Apr-30 00:33N 37°49' W 122°19'0 0.0
2016-Apr-29 23:33N 37°49' W 122°19'0 0.0
2016-Apr-29 22:33N 37°49' W 122°19'0 0.0
2016-Apr-29 21:33N 37°49' W 122°19'0 0.0
2016-Apr-29 20:33N 37°49' W 122°19'0 0.0
2016-Apr-29 19:33N 37°49' W 122°19'0 0.0
2016-Apr-29 18:31N 37°49' W 122°19'0 0.0
2016-Apr-29 17:32N 37°49' W 122°19'0 0.0
2016-Apr-29 16:33N 37°49' W 122°19'0 0.0
2016-Apr-29 12:33N 37°49' W 122°19'0 0.0
2016-Apr-29 11:33N 37°49' W 122°19'0 0.0
2016-Apr-29 10:33N 37°49' W 122°19'0 0.0
2016-Apr-29 09:33N 37°49' W 122°19'0 0.0
2016-Apr-29 08:33N 37°49' W 122°19'0 0.0
2016-Apr-29 07:33N 37°49' W 122°19'0 0.0
2016-Apr-29 06:33N 37°49' W 122°19'0 0.0
2016-Apr-29 05:33N 37°49' W 122°19'0 0.0
2016-Apr-29 04:33N 37°49' W 122°19'0 0.0
2016-Apr-29 03:33N 37°49' W 122°19'0 0.0
2016-Apr-29 02:33N 37°49' W 122°19'0 0.0
2016-Apr-29 01:33N 37°49' W 122°19'4 4.3
2016-Apr-29 00:33N 37°46' W 122°14'0 0.0
2016-Apr-28 23:33N 37°46' W 122°14'0 0.0
2016-Apr-28 22:33N 37°46' W 122°14'0 0.0
2016-Apr-28 21:33N 37°46' W 122°14'0 0.0
2016-Apr-28 20:33N 37°46' W 122°14'4 4.3
2016-Apr-28 19:33N 37°49' W 122°19'2 1.7
2016-Apr-28 18:33N 37°48' W 122°18'1 1.1
2016-Apr-28 17:33N 37°48' W 122°20'2 2.4
2016-Apr-28 16:33N 37°50' W 122°21'0 0.0
2016-Apr-28 15:33N 37°50' W 122°21'1 1.5
2016-Apr-28 14:33N 37°48' W 122°21'2 1.5
2016-Apr-28 13:33N 37°50' W 122°21'3 3.5
2016-Apr-28 12:33N 37°48' W 122°18'3 3.3
2016-Apr-28 11:34N 37°50' W 122°21'0 0.0
2016-Apr-28 10:33N 37°50' W 122°21'0 0.0
2016-Apr-28 09:33N 37°50' W 122°21'0 0.0
2016-Apr-28 08:33N 37°50' W 122°21'0 0.0
2016-Apr-28 07:33N 37°50' W 122°21'0 0.0
2016-Apr-28 06:33N 37°50' W 122°21'0 0.0
2016-Apr-28 05:33N 37°50' W 122°21'0 0.0
2016-Apr-28 04:33N 37°50' W 122°21'0 0.1
2016-Apr-28 03:33N 37°50' W 122°21'0 0.0
2016-Apr-28 02:33N 37°50' W 122°21'0 0.1
2016-Apr-28 01:33N 37°50' W 122°21'0 0.0
2016-Apr-28 00:33N 37°50' W 122°21'0 0.0
2016-Apr-27 23:33N 37°50' W 122°21'0 0.0
2016-Apr-27 22:33N 37°50' W 122°21'0 0.0
2016-Apr-27 21:33N 37°50' W 122°21'0 0.0
2016-Apr-27 20:33N 37°50' W 122°21'0 0.0
2016-Apr-27 19:33N 37°50' W 122°21'3 3.4
2016-Apr-27 18:33N 37°49' W 122°26'7 6.6
2016-Apr-27 17:33N 37°47' W 122°34'28 3.4
2016-Apr-27 09:21N 37°37' W 123°06'20 6.1
2016-Apr-27 06:06N 37°44' W 122°42'9 5.7
2016-Apr-27 04:33N 37°48' W 122°32'7 6.9
2016-Apr-27 03:33N 37°49' W 122°24'5 5.0
2016-Apr-27 02:33N 37°47' W 122°18'1 1.4
2016-Apr-27 01:33N 37°47' W 122°16'2 1.8
2016-Apr-27 00:33N 37°46' W 122°14'0 0.0
2016-Apr-26 23:33N 37°46' W 122°14'0 0.0
2016-Apr-26 22:33N 37°46' W 122°14'0 0.0
2016-Apr-26 21:33N 37°46' W 122°14'0 0.0
2016-Apr-26 20:33N 37°46' W 122°14'0 0.0
2016-Apr-26 19:33N 37°46' W 122°14'0 0.0
2016-Apr-26 18:33N 37°46' W 122°14'0 0.0
2016-Apr-26 17:33N 37°46' W 122°14'0 0.0
2016-Apr-26 16:33N 37°46' W 122°14'3 3.0
2016-Apr-26 15:33N 37°48' W 122°18'2 2.3
2016-Apr-26 14:33N 37°48' W 122°21'2 1.5
2016-Apr-26 13:33N 37°49' W 122°21'2 2.4
2016-Apr-26 12:33N 37°49' W 122°18'0 0.0
2016-Apr-26 11:33N 37°49' W 122°18'0 0.0
2016-Apr-26 10:33N 37°49' W 122°18'0 0.0
2016-Apr-26 09:33N 37°49' W 122°18'0 0.1
2016-Apr-26 08:33N 37°49' W 122°19'0 0.0
2016-Apr-26 07:33N 37°49' W 122°19'1 0.9
2016-Apr-26 06:33N 37°49' W 122°20'9 9.2
2016-Apr-26 05:33N 37°56' W 122°27'5 0.5
2016-Apr-25 20:22N 38°01' W 122°24'7 9.0
2016-Apr-25 19:33N 37°53' W 122°25'5 4.7
2016-Apr-25 18:33N 37°50' W 122°21'9 8.6
2016-Apr-25 17:32N 37°57' W 122°27'6 0.6
2016-Apr-25 08:33N 37°52' W 122°24'5 4.5
2016-Apr-25 07:33N 37°48' W 122°21'1 1.1
2016-Apr-25 06:33N 37°48' W 122°19'1 1.5
2016-Apr-25 05:33N 37°49' W 122°19'0 0.1
2016-Apr-25 04:33N 37°49' W 122°19'0 0.0
2016-Apr-25 03:33N 37°49' W 122°19'0 0.0
2016-Apr-25 02:33N 37°49' W 122°19'0 0.0
2016-Apr-25 01:33N 37°49' W 122°19'0 0.0
2016-Apr-25 00:33N 37°49' W 122°19'2 2.1
2016-Apr-24 23:33N 37°50' W 122°21'0 0.0
2016-Apr-24 22:33N 37°50' W 122°21'0 0.0
2016-Apr-24 21:33N 37°50' W 122°21'0 0.0
2016-Apr-24 20:33N 37°50' W 122°21'3 3.3
2016-Apr-24 19:33N 37°47' W 122°20'3 3.4
2016-Apr-24 18:33N 37°50' W 122°21'0 0.1
2016-Apr-24 17:33N 37°50' W 122°21'0 0.0
2016-Apr-24 16:32N 37°50' W 122°21'0 0.0
2016-Apr-24 15:33N 37°50' W 122°21'0 0.1
2016-Apr-24 14:33N 37°50' W 122°21'4 4.0
2016-Apr-24 13:33N 37°53' W 122°25'1110.7
2016-Apr-24 12:32N 38°03' W 122°20'5 0.8
2016-Apr-24 06:17N 38°04' W 122°13'7 8.3
2016-Apr-24 05:26N 38°02' W 122°22'8 8.8
2016-Apr-24 04:33N 37°55' W 122°27'8 8.2
2016-Apr-24 03:33N 37°48' W 122°21'2 1.7
2016-Apr-24 02:33N 37°48' W 122°19'10 9.9
2016-Apr-24 01:33N 37°55' W 122°27'  

Dump ship's entire track history